sensor_id;sensor_type;location;lat;lon;timestamp;pressure;altitude;pressure_sealevel;temperature;humidity
19884;BME280;10104;50.732;10.174;2022-12-18T00:00:20;99221.88;;;-7.07;63.01
19884;BME280;10104;50.732;10.174;2022-12-18T00:02:42;99227.53;;;-6.96;63.02
19884;BME280;10104;50.732;10.174;2022-12-18T00:05:05;99218.97;;;-6.97;63.11
19884;BME280;10104;50.732;10.174;2022-12-18T00:07:27;99216.34;;;-6.95;63.21
19884;BME280;10104;50.732;10.174;2022-12-18T00:09:48;99219.22;;;-7.04;63.39
19884;BME280;10104;50.732;10.174;2022-12-18T00:12:10;99222.03;;;-7.12;63.43
19884;BME280;10104;50.732;10.174;2022-12-18T00:14:36;99233.94;;;-7.09;63.33
19884;BME280;10104;50.732;10.174;2022-12-18T00:17:01;99222.72;;;-7.07;63.04
19884;BME280;10104;50.732;10.174;2022-12-18T00:19:23;99227.91;;;-7.08;63.23
19884;BME280;10104;50.732;10.174;2022-12-18T00:21:45;99229.53;;;-7.04;63.16
19884;BME280;10104;50.732;10.174;2022-12-18T00:24:07;99228.31;;;-6.92;63.17
19884;BME280;10104;50.732;10.174;2022-12-18T00:26:31;99222.53;;;-7.01;63.27
19884;BME280;10104;50.732;10.174;2022-12-18T00:28:53;99214.84;;;-7.02;63.39
19884;BME280;10104;50.732;10.174;2022-12-18T00:31:17;99224.97;;;-6.96;63.24
19884;BME280;10104;50.732;10.174;2022-12-18T00:33:39;99223.97;;;-7.20;63.64
19884;BME280;10104;50.732;10.174;2022-12-18T00:36:06;99224.50;;;-7.09;63.55
19884;BME280;10104;50.732;10.174;2022-12-18T00:38:28;99241.53;;;-7.05;63.66
19884;BME280;10104;50.732;10.174;2022-12-18T00:40:50;99246.31;;;-6.92;62.99
19884;BME280;10104;50.732;10.174;2022-12-18T00:43:11;99241.28;;;-6.97;63.11
19884;BME280;10104;50.732;10.174;2022-12-18T00:45:33;99237.75;;;-6.93;63.38
19884;BME280;10104;50.732;10.174;2022-12-18T00:47:55;99239.47;;;-6.93;63.43
19884;BME280;10104;50.732;10.174;2022-12-18T00:50:17;99235.19;;;-6.93;63.80
19884;BME280;10104;50.732;10.174;2022-12-18T00:52:38;99242.97;;;-7.24;63.65
19884;BME280;10104;50.732;10.174;2022-12-18T00:55:00;99237.31;;;-7.07;63.47
19884;BME280;10104;50.732;10.174;2022-12-18T00:57:26;99243.47;;;-7.11;63.14
19884;BME280;10104;50.732;10.174;2022-12-18T00:59:48;99238.97;;;-7.05;62.84
19884;BME280;10104;50.732;10.174;2022-12-18T01:02:09;99233.03;;;-7.07;63.03
19884;BME280;10104;50.732;10.174;2022-12-18T01:04:32;99233.06;;;-7.08;63.20
19884;BME280;10104;50.732;10.174;2022-12-18T01:06:54;99239.53;;;-7.23;62.97
19884;BME280;10104;50.732;10.174;2022-12-18T01:09:15;99238.44;;;-7.16;63.28
19884;BME280;10104;50.732;10.174;2022-12-18T01:11:37;99238.28;;;-7.10;62.98
19884;BME280;10104;50.732;10.174;2022-12-18T01:13:59;99243.53;;;-7.14;63.37
19884;BME280;10104;50.732;10.174;2022-12-18T01:16:20;99249.50;;;-7.12;63.31
19884;BME280;10104;50.732;10.174;2022-12-18T01:18:42;99261.19;;;-7.02;63.48
19884;BME280;10104;50.732;10.174;2022-12-18T01:21:12;99256.69;;;-6.96;63.50
19884;BME280;10104;50.732;10.174;2022-12-18T01:23:34;99254.22;;;-6.99;63.35
19884;BME280;10104;50.732;10.174;2022-12-18T01:25:56;99254.03;;;-6.92;63.73
19884;BME280;10104;50.732;10.174;2022-12-18T01:28:19;99258.19;;;-6.88;63.40
19884;BME280;10104;50.732;10.174;2022-12-18T01:30:40;99258.91;;;-6.83;63.72
19884;BME280;10104;50.732;10.174;2022-12-18T01:33:04;99255.66;;;-6.90;63.65
19884;BME280;10104;50.732;10.174;2022-12-18T01:35:26;99264.34;;;-6.92;63.45
19884;BME280;10104;50.732;10.174;2022-12-18T01:37:47;99270.34;;;-6.92;63.94
19884;BME280;10104;50.732;10.174;2022-12-18T01:40:09;99270.06;;;-7.12;63.48
19884;BME280;10104;50.732;10.174;2022-12-18T01:42:31;99274.94;;;-7.03;63.27
19884;BME280;10104;50.732;10.174;2022-12-18T01:47:39;99267.22;;;-7.03;63.26
19884;BME280;10104;50.732;10.174;2022-12-18T01:50:17;99271.84;;;-7.14;63.89
19884;BME280;10104;50.732;10.174;2022-12-18T01:52:45;99277.94;;;-7.17;64.06
19884;BME280;10104;50.732;10.174;2022-12-18T01:55:09;99270.16;;;-7.15;64.44
19884;BME280;10104;50.732;10.174;2022-12-18T01:57:32;99278.47;;;-7.06;64.02
19884;BME280;10104;50.732;10.174;2022-12-18T01:59:57;99278.25;;;-6.98;64.20
19884;BME280;10104;50.732;10.174;2022-12-18T02:02:21;99275.56;;;-6.95;64.19
19884;BME280;10104;50.732;10.174;2022-12-18T02:04:42;99271.38;;;-6.98;64.31
19884;BME280;10104;50.732;10.174;2022-12-18T02:07:31;99268.16;;;-7.06;64.55
19884;BME280;10104;50.732;10.174;2022-12-18T02:12:23;99266.22;;;-6.98;64.48
19884;BME280;10104;50.732;10.174;2022-12-18T02:15:00;99266.91;;;-6.92;64.55
19884;BME280;10104;50.732;10.174;2022-12-18T02:17:37;99264.09;;;-6.85;64.17
19884;BME280;10104;50.732;10.174;2022-12-18T02:22:54;99272.56;;;-6.81;63.86
19884;BME280;10104;50.732;10.174;2022-12-18T02:28:06;99256.13;;;-6.77;63.97
19884;BME280;10104;50.732;10.174;2022-12-18T02:30:31;99257.81;;;-6.76;64.01
19884;BME280;10104;50.732;10.174;2022-12-18T02:32:55;99257.09;;;-6.80;64.19
19884;BME280;10104;50.732;10.174;2022-12-18T02:35:25;99256.94;;;-6.75;64.50
19884;BME280;10104;50.732;10.174;2022-12-18T02:37:48;99247.69;;;-6.81;64.72
19884;BME280;10104;50.732;10.174;2022-12-18T02:40:11;99245.84;;;-6.77;64.30
19884;BME280;10104;50.732;10.174;2022-12-18T02:42:33;99238.13;;;-6.77;64.30
19884;BME280;10104;50.732;10.174;2022-12-18T02:44:55;99244.94;;;-6.76;64.22
19884;BME280;10104;50.732;10.174;2022-12-18T02:47:20;99239.84;;;-6.78;64.61
19884;BME280;10104;50.732;10.174;2022-12-18T03:07:53;99258.31;;;-7.21;67.45
19884;BME280;10104;50.732;10.174;2022-12-18T03:10:19;99252.09;;;-7.14;67.41
19884;BME280;10104;50.732;10.174;2022-12-18T03:12:47;99246.00;;;-7.10;67.29
19884;BME280;10104;50.732;10.174;2022-12-18T03:15:16;99242.22;;;-6.98;66.56
19884;BME280;10104;50.732;10.174;2022-12-18T03:17:42;99245.06;;;-7.09;66.54
19884;BME280;10104;50.732;10.174;2022-12-18T03:20:10;99245.88;;;-7.07;66.57
19884;BME280;10104;50.732;10.174;2022-12-18T03:22:34;99253.97;;;-7.19;66.66
19884;BME280;10104;50.732;10.174;2022-12-18T03:25:00;99255.38;;;-7.09;66.72
19884;BME280;10104;50.732;10.174;2022-12-18T03:27:25;99256.28;;;-7.10;66.86
19884;BME280;10104;50.732;10.174;2022-12-18T03:29:52;99257.84;;;-7.04;66.53
19884;BME280;10104;50.732;10.174;2022-12-18T03:35:05;99245.13;;;-6.82;66.10
19884;BME280;10104;50.732;10.174;2022-12-18T03:37:27;99248.34;;;-6.74;65.54
19884;BME280;10104;50.732;10.174;2022-12-18T03:39:49;99247.72;;;-6.82;66.16
19884;BME280;10104;50.732;10.174;2022-12-18T03:42:24;99241.06;;;-6.89;66.15
19884;BME280;10104;50.732;10.174;2022-12-18T03:45:08;99236.91;;;-6.93;66.55
19884;BME280;10104;50.732;10.174;2022-12-18T03:47:57;99240.91;;;-6.85;66.21
19884;BME280;10104;50.732;10.174;2022-12-18T03:50:26;99246.91;;;-6.84;66.23
19884;BME280;10104;50.732;10.174;2022-12-18T03:52:56;99249.66;;;-6.90;66.34
19884;BME280;10104;50.732;10.174;2022-12-18T03:55:19;99245.25;;;-6.85;65.50
19884;BME280;10104;50.732;10.174;2022-12-18T03:57:43;99227.94;;;-6.80;65.71
19884;BME280;10104;50.732;10.174;2022-12-18T04:00:09;99233.81;;;-6.77;65.21
19884;BME280;10104;50.732;10.174;2022-12-18T04:02:32;99232.19;;;-6.79;65.39
19884;BME280;10104;50.732;10.174;2022-12-18T04:04:59;99234.00;;;-6.83;65.74
19884;BME280;10104;50.732;10.174;2022-12-18T04:07:23;99240.91;;;-6.85;65.46
19884;BME280;10104;50.732;10.174;2022-12-18T04:09:46;99235.72;;;-6.83;65.33
19884;BME280;10104;50.732;10.174;2022-12-18T04:12:09;99237.72;;;-6.91;65.96
19884;BME280;10104;50.732;10.174;2022-12-18T04:14:31;99243.63;;;-6.89;65.75
19884;BME280;10104;50.732;10.174;2022-12-18T04:16:56;99243.69;;;-6.91;66.19
19884;BME280;10104;50.732;10.174;2022-12-18T04:19:18;99238.53;;;-6.91;66.03
19884;BME280;10104;50.732;10.174;2022-12-18T04:21:39;99236.91;;;-6.93;66.14
19884;BME280;10104;50.732;10.174;2022-12-18T04:24:01;99240.91;;;-6.85;65.28
19884;BME280;10104;50.732;10.174;2022-12-18T04:26:22;99235.03;;;-6.88;65.16
19884;BME280;10104;50.732;10.174;2022-12-18T04:28:44;99232.41;;;-6.87;65.51
19884;BME280;10104;50.732;10.174;2022-12-18T04:31:05;99240.16;;;-6.87;65.94
19884;BME280;10104;50.732;10.174;2022-12-18T04:33:27;99240.19;;;-6.88;65.22
19884;BME280;10104;50.732;10.174;2022-12-18T04:35:49;99241.09;;;-6.91;65.61
19884;BME280;10104;50.732;10.174;2022-12-18T04:38:11;99253.25;;;-6.95;65.63
19884;BME280;10104;50.732;10.174;2022-12-18T04:40:34;99249.75;;;-6.92;65.56
19884;BME280;10104;50.732;10.174;2022-12-18T04:42:55;99252.44;;;-6.97;66.12
19884;BME280;10104;50.732;10.174;2022-12-18T04:45:17;99253.72;;;-7.10;65.22
19884;BME280;10104;50.732;10.174;2022-12-18T04:47:38;99252.88;;;-7.10;65.11
19884;BME280;10104;50.732;10.174;2022-12-18T04:50:00;99257.06;;;-7.08;65.28
19884;BME280;10104;50.732;10.174;2022-12-18T04:52:21;99252.13;;;-7.15;65.44
19884;BME280;10104;50.732;10.174;2022-12-18T04:54:46;99253.75;;;-7.11;65.60
19884;BME280;10104;50.732;10.174;2022-12-18T04:57:07;99252.19;;;-7.17;65.83
19884;BME280;10104;50.732;10.174;2022-12-18T04:59:29;99246.06;;;-7.13;65.28
19884;BME280;10104;50.732;10.174;2022-12-18T05:01:50;99250.41;;;-7.15;65.28
19884;BME280;10104;50.732;10.174;2022-12-18T05:04:12;99252.25;;;-7.18;65.38
19884;BME280;10104;50.732;10.174;2022-12-18T05:06:34;99242.44;;;-7.06;65.65
19884;BME280;10104;50.732;10.174;2022-12-18T05:08:55;99251.88;;;-7.06;65.33
19884;BME280;10104;50.732;10.174;2022-12-18T05:11:17;99246.69;;;-7.05;65.54
19884;BME280;10104;50.732;10.174;2022-12-18T05:13:39;99244.84;;;-7.01;65.23
19884;BME280;10104;50.732;10.174;2022-12-18T05:16:02;99247.53;;;-7.04;65.32
19884;BME280;10104;50.732;10.174;2022-12-18T05:18:24;99248.59;;;-7.11;64.98
19884;BME280;10104;50.732;10.174;2022-12-18T05:20:45;99251.94;;;-7.09;65.45
19884;BME280;10104;50.732;10.174;2022-12-18T05:23:07;99255.50;;;-7.13;65.58
19884;BME280;10104;50.732;10.174;2022-12-18T05:25:28;99264.03;;;-7.11;65.79
19884;BME280;10104;50.732;10.174;2022-12-18T05:27:51;99258.22;;;-7.18;66.41
19884;BME280;10104;50.732;10.174;2022-12-18T05:30:13;99257.69;;;-7.29;69.83
19884;BME280;10104;50.732;10.174;2022-12-18T05:32:35;99255.13;;;-7.29;70.46
19884;BME280;10104;50.732;10.174;2022-12-18T05:34:56;99256.97;;;-7.34;69.58
19884;BME280;10104;50.732;10.174;2022-12-18T05:37:18;99266.44;;;-7.34;68.86
19884;BME280;10104;50.732;10.174;2022-12-18T05:39:40;99266.31;;;-7.30;67.79
19884;BME280;10104;50.732;10.174;2022-12-18T05:42:01;99277.13;;;-7.19;67.16
19884;BME280;10104;50.732;10.174;2022-12-18T05:44:23;99276.03;;;-7.10;67.31
19884;BME280;10104;50.732;10.174;2022-12-18T05:46:44;99267.53;;;-7.14;67.67
19884;BME280;10104;50.732;10.174;2022-12-18T05:49:06;99273.44;;;-7.10;67.18
19884;BME280;10104;50.732;10.174;2022-12-18T05:51:27;99273.44;;;-7.10;67.46
19884;BME280;10104;50.732;10.174;2022-12-18T05:53:49;99273.44;;;-7.10;67.14
19884;BME280;10104;50.732;10.174;2022-12-18T05:56:13;99276.81;;;-7.08;67.44
19884;BME280;10104;50.732;10.174;2022-12-18T05:58:36;99286.13;;;-7.04;66.82
19884;BME280;10104;50.732;10.174;2022-12-18T06:01:05;99286.91;;;-7.02;67.16
19884;BME280;10104;50.732;10.174;2022-12-18T06:03:26;99287.25;;;-7.13;68.02
19884;BME280;10104;50.732;10.174;2022-12-18T06:05:54;99281.88;;;-7.05;67.65
19884;BME280;10104;50.732;10.174;2022-12-18T06:08:15;99279.56;;;-7.14;67.24
19884;BME280;10104;50.732;10.174;2022-12-18T06:10:37;99280.56;;;-7.20;68.74
19884;BME280;10104;50.732;10.174;2022-12-18T06:12:59;99281.03;;;-7.35;68.68
19884;BME280;10104;50.732;10.174;2022-12-18T06:15:21;99276.84;;;-7.39;70.54
19884;BME280;10104;50.732;10.174;2022-12-18T06:17:43;99270.66;;;-7.33;69.59
19884;BME280;10104;50.732;10.174;2022-12-18T06:20:05;99270.25;;;-7.18;69.27
19884;BME280;10104;50.732;10.174;2022-12-18T06:22:30;99280.91;;;-7.30;69.13
19884;BME280;10104;50.732;10.174;2022-12-18T06:24:52;99276.31;;;-7.21;68.82
19884;BME280;10104;50.732;10.174;2022-12-18T06:27:14;99273.50;;;-7.12;68.45
19884;BME280;10104;50.732;10.174;2022-12-18T06:29:35;99274.41;;;-7.14;68.40
19884;BME280;10104;50.732;10.174;2022-12-18T06:31:57;99274.16;;;-7.05;68.41
19884;BME280;10104;50.732;10.174;2022-12-18T06:34:18;99272.09;;;-6.94;68.49
19884;BME280;10104;50.732;10.174;2022-12-18T06:36:40;99263.34;;;-7.16;68.86
19884;BME280;10104;50.732;10.174;2022-12-18T06:39:01;99261.59;;;-7.16;68.94
19884;BME280;10104;50.732;10.174;2022-12-18T06:41:23;99258.97;;;-7.14;68.14
19884;BME280;10104;50.732;10.174;2022-12-18T06:43:44;99268.06;;;-7.03;67.98
19884;BME280;10104;50.732;10.174;2022-12-18T06:46:06;99267.84;;;-6.95;67.76
19884;BME280;10104;50.732;10.174;2022-12-18T06:48:28;99271.63;;;-7.07;68.51
19884;BME280;10104;50.732;10.174;2022-12-18T06:50:50;99266.50;;;-7.08;68.68
19884;BME280;10104;50.732;10.174;2022-12-18T06:53:12;99268.97;;;-7.04;68.92
19884;BME280;10104;50.732;10.174;2022-12-18T06:55:33;99271.06;;;-7.16;72.79
19884;BME280;10104;50.732;10.174;2022-12-18T06:57:55;99270.97;;;-7.13;72.93
19884;BME280;10104;50.732;10.174;2022-12-18T07:00:17;99277.50;;;-7.03;70.55
19884;BME280;10104;50.732;10.174;2022-12-18T07:02:38;99276.97;;;-7.14;71.92
19884;BME280;10104;50.732;10.174;2022-12-18T07:05:00;99282.28;;;-6.91;70.43
19884;BME280;10104;50.732;10.174;2022-12-18T07:07:29;99284.78;;;-6.88;70.82
19884;BME280;10104;50.732;10.174;2022-12-18T07:09:51;99281.31;;;-6.87;70.87
19884;BME280;10104;50.732;10.174;2022-12-18T07:12:12;99288.94;;;-6.84;71.33
19884;BME280;10104;50.732;10.174;2022-12-18T07:14:34;99295.97;;;-6.89;72.10
19884;BME280;10104;50.732;10.174;2022-12-18T07:16:55;99303.84;;;-6.93;72.67
19884;BME280;10104;50.732;10.174;2022-12-18T07:19:17;99309.91;;;-6.96;74.30
19884;BME280;10104;50.732;10.174;2022-12-18T07:21:39;99315.63;;;-6.86;73.95
19884;BME280;10104;50.732;10.174;2022-12-18T07:24:00;99322.13;;;-6.73;73.13
19884;BME280;10104;50.732;10.174;2022-12-18T07:26:22;99320.44;;;-6.74;73.69
19884;BME280;10104;50.732;10.174;2022-12-18T07:28:44;99330.44;;;-6.65;72.75
19884;BME280;10104;50.732;10.174;2022-12-18T07:31:07;99329.09;;;-6.78;78.04
19884;BME280;10104;50.732;10.174;2022-12-18T07:33:29;99335.09;;;-6.78;76.09
19884;BME280;10104;50.732;10.174;2022-12-18T07:35:51;99337.06;;;-6.57;73.01
19884;BME280;10104;50.732;10.174;2022-12-18T07:38:12;99349.13;;;-6.59;73.62
19884;BME280;10104;50.732;10.174;2022-12-18T07:40:34;99351.25;;;-6.43;73.21
19884;BME280;10104;50.732;10.174;2022-12-18T07:42:55;99354.75;;;-6.46;73.22
19884;BME280;10104;50.732;10.174;2022-12-18T07:45:17;99352.09;;;-6.43;72.72
19884;BME280;10104;50.732;10.174;2022-12-18T07:47:38;99355.13;;;-6.58;71.57
19884;BME280;10104;50.732;10.174;2022-12-18T07:50:03;99354.94;;;-6.52;71.55
19884;BME280;10104;50.732;10.174;2022-12-18T07:52:25;99343.41;;;-6.40;71.79
19884;BME280;10104;50.732;10.174;2022-12-18T07:54:47;99342.56;;;-6.41;72.42
19884;BME280;10104;50.732;10.174;2022-12-18T07:57:11;99351.25;;;-6.43;70.88
19884;BME280;10104;50.732;10.174;2022-12-18T07:59:52;99352.69;;;-6.35;70.41
19884;BME280;10104;50.732;10.174;2022-12-18T08:02:14;99355.72;;;-6.22;70.45
19884;BME280;10104;50.732;10.174;2022-12-18T08:04:36;99354.28;;;-6.31;71.02
19884;BME280;10104;50.732;10.174;2022-12-18T08:06:57;99357.94;;;-6.38;71.88
19884;BME280;10104;50.732;10.174;2022-12-18T08:09:19;99359.47;;;-6.32;71.92
19884;BME280;10104;50.732;10.174;2022-12-18T08:11:40;99354.13;;;-6.26;71.37
19884;BME280;10104;50.732;10.174;2022-12-18T08:14:02;99352.63;;;-6.33;71.17
19884;BME280;10104;50.732;10.174;2022-12-18T08:16:24;99349.63;;;-6.47;76.03
19884;BME280;10104;50.732;10.174;2022-12-18T08:18:45;99351.94;;;-6.38;77.81
19884;BME280;10104;50.732;10.174;2022-12-18T08:21:19;99340.19;;;-6.47;78.50
19884;BME280;10104;50.732;10.174;2022-12-18T08:23:42;99345.78;;;-6.34;78.50
19884;BME280;10104;50.732;10.174;2022-12-18T08:26:04;99343.38;;;-6.39;80.18
19884;BME280;10104;50.732;10.174;2022-12-18T08:28:26;99331.19;;;-6.34;78.92
19884;BME280;10104;50.732;10.174;2022-12-18T08:30:51;99334.53;;;-6.30;81.57
19884;BME280;10104;50.732;10.174;2022-12-18T08:33:13;99335.06;;;-6.21;83.65
19884;BME280;10104;50.732;10.174;2022-12-18T08:35:36;99326.97;;;-6.36;86.43
19884;BME280;10104;50.732;10.174;2022-12-18T08:38:05;99324.25;;;-6.32;86.48
19884;BME280;10104;50.732;10.174;2022-12-18T08:40:27;99329.41;;;-6.32;91.21
19884;BME280;10104;50.732;10.174;2022-12-18T08:42:48;99330.91;;;-6.25;90.82
19884;BME280;10104;50.732;10.174;2022-12-18T08:45:28;99321.75;;;-6.07;92.35
19884;BME280;10104;50.732;10.174;2022-12-18T08:47:50;99334.28;;;-5.96;91.90
19884;BME280;10104;50.732;10.174;2022-12-18T08:50:11;99328.88;;;-5.89;92.72
19884;BME280;10104;50.732;10.174;2022-12-18T08:52:33;99329.28;;;-5.76;92.29
19884;BME280;10104;50.732;10.174;2022-12-18T08:54:55;99316.91;;;-5.66;92.00
19884;BME280;10104;50.732;10.174;2022-12-18T08:57:16;99312.13;;;-5.52;92.29
19884;BME280;10104;50.732;10.174;2022-12-18T08:59:38;99312.78;;;-5.47;92.59
19884;BME280;10104;50.732;10.174;2022-12-18T09:01:59;99311.50;;;-5.36;92.33
19884;BME280;10104;50.732;10.174;2022-12-18T09:04:22;99302.56;;;-5.25;92.08
19884;BME280;10104;50.732;10.174;2022-12-18T09:06:43;99302.16;;;-5.15;92.26
19884;BME280;10104;50.732;10.174;2022-12-18T09:09:05;99297.00;;;-4.92;90.82
19884;BME280;10104;50.732;10.174;2022-12-18T09:11:28;99289.06;;;-4.87;90.25
19884;BME280;10104;50.732;10.174;2022-12-18T09:13:51;99291.66;;;-4.87;91.37
19884;BME280;10104;50.732;10.174;2022-12-18T09:16:12;99290.19;;;-4.71;91.00
19884;BME280;10104;50.732;10.174;2022-12-18T09:18:34;99280.03;;;-4.75;91.21
19884;BME280;10104;50.732;10.174;2022-12-18T09:20:55;99274.44;;;-4.65;91.17
19884;BME280;10104;50.732;10.174;2022-12-18T09:23:17;99273.41;;;-4.61;91.14
19884;BME280;10104;50.732;10.174;2022-12-18T09:25:39;99275.34;;;-4.66;91.73
19884;BME280;10104;50.732;10.174;2022-12-18T09:28:06;99274.97;;;-4.57;91.32
19884;BME280;10104;50.732;10.174;2022-12-18T09:30:28;99272.88;;;-4.47;90.91
19884;BME280;10104;50.732;10.174;2022-12-18T09:32:49;99271.09;;;-4.45;91.26
19884;BME280;10104;50.732;10.174;2022-12-18T09:35:11;99279.59;;;-4.43;91.02
19884;BME280;10104;50.732;10.174;2022-12-18T09:37:33;99274.63;;;-4.47;91.30
19884;BME280;10104;50.732;10.174;2022-12-18T09:39:54;99274.31;;;-4.40;91.13
19884;BME280;10104;50.732;10.174;2022-12-18T09:42:22;99269.91;;;-4.38;90.73
19884;BME280;10104;50.732;10.174;2022-12-18T09:44:45;99268.84;;;-4.32;90.65
19884;BME280;10104;50.732;10.174;2022-12-18T09:47:13;99265.09;;;-4.25;90.30
19884;BME280;10104;50.732;10.174;2022-12-18T09:49:42;99264.03;;;-4.20;89.86
19884;BME280;10104;50.732;10.174;2022-12-18T09:52:11;99266.22;;;-4.11;89.82
19884;BME280;10104;50.732;10.174;2022-12-18T09:54:41;99268.31;;;-3.98;89.09
19884;BME280;10104;50.732;10.174;2022-12-18T09:57:05;99256.91;;;-3.94;88.91
19884;BME280;10104;50.732;10.174;2022-12-18T09:59:32;99255.63;;;-3.84;88.58
19884;BME280;10104;50.732;10.174;2022-12-18T10:01:56;99259.72;;;-3.79;88.42
19884;BME280;10104;50.732;10.174;2022-12-18T10:04:18;99259.66;;;-3.77;88.49
19884;BME280;10104;50.732;10.174;2022-12-18T10:06:52;99267.84;;;-3.68;88.71
19884;BME280;10104;50.732;10.174;2022-12-18T10:09:33;99263.50;;;-3.47;87.43
19884;BME280;10104;50.732;10.174;2022-12-18T10:12:16;99267.00;;;-3.48;87.70
19884;BME280;10104;50.732;10.174;2022-12-18T10:14:48;99258.13;;;-3.42;87.36
19884;BME280;10104;50.732;10.174;2022-12-18T10:17:28;99261.06;;;-3.31;86.97
19884;BME280;10104;50.732;10.174;2022-12-18T10:19:59;99254.94;;;-3.10;85.97
19884;BME280;10104;50.732;10.174;2022-12-18T10:25:14;99259.75;;;-2.83;84.30
19884;BME280;10104;50.732;10.174;2022-12-18T10:27:38;99248.75;;;-2.89;84.56
19884;BME280;10104;50.732;10.174;2022-12-18T10:30:04;99250.22;;;-2.83;83.84
19884;BME280;10104;50.732;10.174;2022-12-18T10:32:29;99240.84;;;-2.67;83.20
19884;BME280;10104;50.732;10.174;2022-12-18T10:34:53;99250.59;;;-2.72;83.47
19884;BME280;10104;50.732;10.174;2022-12-18T10:37:25;99237.13;;;-2.61;83.02
19884;BME280;10104;50.732;10.174;2022-12-18T10:42:30;99252.97;;;-2.67;83.84
19884;BME280;10104;50.732;10.174;2022-12-18T10:45:02;99244.00;;;-2.79;83.92
19884;BME280;10104;50.732;10.174;2022-12-18T10:47:24;99238.59;;;-2.74;84.23
19884;BME280;10104;50.732;10.174;2022-12-18T10:49:50;99237.53;;;-2.70;82.99
19884;BME280;10104;50.732;10.174;2022-12-18T10:52:20;99237.91;;;-2.78;83.85
19884;BME280;10104;50.732;10.174;2022-12-18T10:54:55;99245.81;;;-2.62;82.85
19884;BME280;10104;50.732;10.174;2022-12-18T10:57:37;99258.38;;;-2.72;82.64
19884;BME280;10104;50.732;10.174;2022-12-18T11:00:03;99259.91;;;-2.87;83.71
19884;BME280;10104;50.732;10.174;2022-12-18T11:02:40;99248.28;;;-2.78;83.27
19884;BME280;10104;50.732;10.174;2022-12-18T11:05:25;99243.44;;;-2.67;82.33
19884;BME280;10104;50.732;10.174;2022-12-18T11:07:48;99242.97;;;-2.58;81.71
19884;BME280;10104;50.732;10.174;2022-12-18T11:10:18;99240.09;;;-2.52;80.98
19884;BME280;10104;50.732;10.174;2022-12-18T11:12:40;99244.25;;;-2.48;80.62
19884;BME280;10104;50.732;10.174;2022-12-18T11:15:02;99252.53;;;-2.77;81.97
19884;BME280;10104;50.732;10.174;2022-12-18T11:17:31;99251.28;;;-2.68;81.12
19884;BME280;10104;50.732;10.174;2022-12-18T11:19:58;99247.84;;;-2.69;81.28
19884;BME280;10104;50.732;10.174;2022-12-18T11:22:27;99241.31;;;-2.77;81.53
19884;BME280;10104;50.732;10.174;2022-12-18T11:24:56;99232.44;;;-2.72;80.82
19884;BME280;10104;50.732;10.174;2022-12-18T11:27:39;99235.91;;;-2.54;80.09
19884;BME280;10104;50.732;10.174;2022-12-18T11:32:43;99215.66;;;-2.65;79.92
19884;BME280;10104;50.732;10.174;2022-12-18T11:37:31;99206.69;;;-2.58;79.47
19884;BME280;10104;50.732;10.174;2022-12-18T11:40:36;99203.78;;;-2.69;79.89
19884;BME280;10104;50.732;10.174;2022-12-18T11:43:16;99190.28;;;-2.58;78.79
19884;BME280;10104;50.732;10.174;2022-12-18T11:45:45;99191.25;;;-2.59;79.86
19884;BME280;10104;50.732;10.174;2022-12-18T11:48:17;99186.59;;;-2.71;80.49
19884;BME280;10104;50.732;10.174;2022-12-18T11:50:46;99182.38;;;-2.72;79.72
19884;BME280;10104;50.732;10.174;2022-12-18T11:53:11;99170.09;;;-2.69;79.26
19884;BME280;10104;50.732;10.174;2022-12-18T12:00:42;99171.00;;;-2.70;80.13
19884;BME280;10104;50.732;10.174;2022-12-18T12:13:37;99173.28;;;-2.81;80.52
19884;BME280;10104;50.732;10.174;2022-12-18T12:16:15;99177.31;;;-2.75;80.27
19884;BME280;10104;50.732;10.174;2022-12-18T12:19:21;99183.50;;;-2.78;79.67
19884;BME280;10104;50.732;10.174;2022-12-18T12:21:53;99184.41;;;-2.79;80.19
19884;BME280;10104;50.732;10.174;2022-12-18T12:38:19;99138.16;;;-2.52;77.77
19884;BME280;10104;50.732;10.174;2022-12-18T12:40:49;99137.72;;;-2.43;76.80
19884;BME280;10104;50.732;10.174;2022-12-18T12:43:37;99130.53;;;-2.38;76.15
19884;BME280;10104;50.732;10.174;2022-12-18T12:46:11;99124.66;;;-2.41;76.39
19884;BME280;10104;50.732;10.174;2022-12-18T12:48:41;99135.16;;;-2.27;75.89
19884;BME280;10104;50.732;10.174;2022-12-18T12:51:12;99131.53;;;-2.23;75.71
19884;BME280;10104;50.732;10.174;2022-12-18T12:53:37;99134.72;;;-2.18;74.89
19884;BME280;10104;50.732;10.174;2022-12-18T12:56:03;99122.69;;;-2.04;73.90
19884;BME280;10104;50.732;10.174;2022-12-18T13:07:01;99116.63;;;-2.20;74.46
19884;BME280;10104;50.732;10.174;2022-12-18T13:09:21;99118.09;;;-2.31;74.91
19884;BME280;10104;50.732;10.174;2022-12-18T13:11:46;99114.19;;;-2.40;75.68
19884;BME280;10104;50.732;10.174;2022-12-18T13:14:33;99109.69;;;-2.19;74.12
19884;BME280;10104;50.732;10.174;2022-12-18T13:17:22;99113.75;;;-2.31;74.98
19884;BME280;10104;50.732;10.174;2022-12-18T13:19:50;99100.69;;;-2.47;75.66
19884;BME280;10104;50.732;10.174;2022-12-18T13:22:25;99107.44;;;-2.42;75.61
19884;BME280;10104;50.732;10.174;2022-12-18T13:24:50;99110.16;;;-2.46;75.79
19884;BME280;10104;50.732;10.174;2022-12-18T13:30:02;99101.00;;;-2.53;74.73
19884;BME280;10104;50.732;10.174;2022-12-18T13:32:44;99110.63;;;-2.37;74.67
19884;BME280;10104;50.732;10.174;2022-12-18T13:37:43;99126.69;;;-2.14;72.19
19884;BME280;10104;50.732;10.174;2022-12-18T13:45:45;99114.41;;;-2.27;71.99
19884;BME280;10104;50.732;10.174;2022-12-18T13:48:19;99107.88;;;-2.17;72.37
19884;BME280;10104;50.732;10.174;2022-12-18T13:50:42;99103.81;;;-1.90;71.20
19884;BME280;10104;50.732;10.174;2022-12-18T13:53:04;99110.75;;;-1.90;71.35
19884;BME280;10104;50.732;10.174;2022-12-18T13:55:26;99121.25;;;-1.92;71.37
19884;BME280;10104;50.732;10.174;2022-12-18T13:57:48;99122.75;;;-1.88;70.45
19884;BME280;10104;50.732;10.174;2022-12-18T14:02:45;99130.53;;;-1.88;70.63
19884;BME280;10104;50.732;10.174;2022-12-18T14:05:22;99130.88;;;-1.94;70.14
19884;BME280;10104;50.732;10.174;2022-12-18T14:07:44;99147.03;;;-1.89;69.58
19884;BME280;10104;50.732;10.174;2022-12-18T14:10:13;99146.47;;;-1.78;70.26
19884;BME280;10104;50.732;10.174;2022-12-18T14:12:57;99149.16;;;-1.80;68.45